createdAt,value
2022-09-14T00:02:08.065Z,16.43
2022-09-14T00:04:42.085Z,16.39
2022-09-14T00:07:14.093Z,16.40
2022-09-14T00:09:46.209Z,16.43
2022-09-14T00:12:18.343Z,16.44
2022-09-14T00:14:50.474Z,16.42
2022-09-14T00:17:22.485Z,16.43
2022-09-14T00:19:54.461Z,16.35
2022-09-14T00:22:26.500Z,16.35
2022-09-14T00:24:58.535Z,16.36
2022-09-14T00:27:30.604Z,16.25
2022-09-14T00:30:02.971Z,16.26
2022-09-14T00:32:35.423Z,16.25
2022-09-14T00:35:08.021Z,16.24
2022-09-14T00:37:40.350Z,16.23
2022-09-14T00:40:12.660Z,16.24
2022-09-14T00:42:45.921Z,16.24
2022-09-14T00:45:21.779Z,16.23
2022-09-14T00:47:54.604Z,16.15
2022-09-14T00:50:26.871Z,16.11
2022-09-14T00:52:59.579Z,16.10
2022-09-14T00:55:33.238Z,16.06
2022-09-14T00:58:05.474Z,15.81
2022-09-14T01:00:37.747Z,15.78
2022-09-14T01:03:09.899Z,15.70
2022-09-14T01:06:16.113Z,15.64
2022-09-14T01:09:41.892Z,15.63
2022-09-14T01:12:50.104Z,15.64
2022-09-14T01:15:56.592Z,15.65
2022-09-14T01:18:47.370Z,15.66
2022-09-14T01:21:35.239Z,15.66
2022-09-14T01:24:31.585Z,15.69
2022-09-14T01:27:25.353Z,15.65
2022-09-14T01:30:20.222Z,15.63
2022-09-14T01:33:19.671Z,15.61
2022-09-14T01:35:58.690Z,15.58
2022-09-14T01:38:49.163Z,15.59
2022-09-14T01:41:25.259Z,15.55
2022-09-14T01:44:13.681Z,15.53
2022-09-14T01:46:53.973Z,15.50
2022-09-14T01:49:32.337Z,15.50
2022-09-14T01:52:22.020Z,15.44
2022-09-14T01:55:23.017Z,15.35
2022-09-14T01:58:20.225Z,15.36
2022-09-14T02:00:56.821Z,15.31
2022-09-14T02:03:45.158Z,15.31
2022-09-14T02:06:29.171Z,15.34
2022-09-14T02:09:01.727Z,15.40
2022-09-14T02:11:33.803Z,15.42
2022-09-14T02:14:06.782Z,15.44
2022-09-14T02:16:40.359Z,15.46
2022-09-14T02:19:13.910Z,15.50
2022-09-14T02:21:46.096Z,15.54
2022-09-14T02:24:18.846Z,15.48
2022-09-14T02:26:53.329Z,15.47
2022-09-14T02:29:25.330Z,15.48
2022-09-14T02:32:43.943Z,15.50
2022-09-14T02:35:28.204Z,15.45
2022-09-14T02:38:40.701Z,15.33
2022-09-14T02:41:30.685Z,15.32
2022-09-14T02:44:24.805Z,15.30
2022-09-14T02:47:08.087Z,15.31
2022-09-14T02:49:52.694Z,15.30
2022-09-14T02:53:06.378Z,15.29
2022-09-14T02:55:50.167Z,15.14
2022-09-14T02:58:22.269Z,15.13
2022-09-14T03:00:54.379Z,15.12
2022-09-14T03:03:26.421Z,15.12
2022-09-14T03:05:58.410Z,15.07
2022-09-14T03:08:30.853Z,15.06
2022-09-14T03:11:03.158Z,15.00
2022-09-14T03:13:35.916Z,14.94
2022-09-14T03:16:11.752Z,14.88
2022-09-14T03:18:44.285Z,14.84
2022-09-14T03:21:17.709Z,14.89
2022-09-14T03:23:52.868Z,14.93
2022-09-14T03:26:27.573Z,14.95
2022-09-14T03:28:59.864Z,14.97
2022-09-14T03:31:33.263Z,14.96
2022-09-14T03:34:05.347Z,14.94
2022-09-14T03:36:37.303Z,14.94
2022-09-14T03:39:09.293Z,14.86
2022-09-14T03:41:41.202Z,14.90
2022-09-14T03:44:13.141Z,14.79
2022-09-14T03:46:45.237Z,14.71
2022-09-14T03:49:17.256Z,14.67
2022-09-14T03:51:49.157Z,14.67
2022-09-14T03:54:21.273Z,14.67
2022-09-14T03:56:54.168Z,14.63
2022-09-14T03:59:26.141Z,14.60
2022-09-14T04:01:58.107Z,14.50
2022-09-14T04:04:30.162Z,14.57
2022-09-14T04:07:02.059Z,14.62
2022-09-14T04:09:34.219Z,14.61
2022-09-14T04:12:06.609Z,14.62
2022-09-14T04:14:38.595Z,14.68
2022-09-14T04:17:10.586Z,14.65
2022-09-14T04:19:42.509Z,14.68
2022-09-14T04:22:14.410Z,14.68
2022-09-14T04:24:46.378Z,14.67
2022-09-14T04:27:18.315Z,14.65
2022-09-14T04:29:50.859Z,14.68
2022-09-14T04:32:22.760Z,14.63
2022-09-14T04:34:54.813Z,14.59
2022-09-14T04:37:26.775Z,14.58
2022-09-14T04:40:02.409Z,14.52
2022-09-14T04:42:34.365Z,14.55
2022-09-14T04:45:06.941Z,14.57
2022-09-14T04:47:39.115Z,14.59
2022-09-14T04:50:12.161Z,14.58
2022-09-14T04:52:44.123Z,14.63
2022-09-14T04:55:16.147Z,14.64
2022-09-14T04:57:48.052Z,14.63
2022-09-14T05:00:20.942Z,14.63
2022-09-14T05:02:52.887Z,14.64
2022-09-14T05:05:24.838Z,14.61
2022-09-14T05:07:56.778Z,14.57
2022-09-14T05:10:28.915Z,14.59
2022-09-14T05:13:00.820Z,14.71
2022-09-14T05:15:32.829Z,14.84
2022-09-14T05:18:05.160Z,14.89
2022-09-14T05:20:39.066Z,14.93
2022-09-14T05:23:11.589Z,15.00
2022-09-14T05:25:43.711Z,15.04
2022-09-14T05:28:15.588Z,15.15
2022-09-14T05:30:47.576Z,15.16
2022-09-14T05:33:20.622Z,15.24
2022-09-14T05:35:52.718Z,15.31
2022-09-14T05:38:24.624Z,15.40
2022-09-14T05:40:56.557Z,15.51
2022-09-14T05:43:29.938Z,15.59
2022-09-14T05:46:11.485Z,15.61
2022-09-14T05:48:44.188Z,15.62
2022-09-14T05:51:20.398Z,15.70
2022-09-14T05:53:57.890Z,15.77
2022-09-14T05:56:31.970Z,15.85
2022-09-14T05:59:04.408Z,15.83
2022-09-14T06:01:36.408Z,15.90
2022-09-14T06:04:11.385Z,15.90
2022-09-14T06:06:55.930Z,15.92
2022-09-14T06:09:35.529Z,15.91
2022-09-14T06:12:07.745Z,15.94
2022-09-14T06:14:40.845Z,15.99
2022-09-14T06:17:12.903Z,16.05
2022-09-14T06:19:44.789Z,16.06
2022-09-14T06:22:16.872Z,16.11
2022-09-14T06:24:48.840Z,16.18
2022-09-14T06:27:20.776Z,16.24
2022-09-14T06:29:53.924Z,16.25
2022-09-14T06:32:27.395Z,16.32
2022-09-14T06:34:59.701Z,16.35
2022-09-14T06:37:31.618Z,16.33
2022-09-14T06:40:04.833Z,16.40
2022-09-14T06:42:36.852Z,16.42
2022-09-14T06:45:09.140Z,16.46
2022-09-14T06:47:41.122Z,16.53
2022-09-14T06:50:13.638Z,16.55
2022-09-14T06:52:45.587Z,16.62
2022-09-14T06:55:17.577Z,16.77
2022-09-14T06:57:49.552Z,16.88
2022-09-14T07:00:21.678Z,16.95
2022-09-14T07:02:55.759Z,16.97
2022-09-14T07:05:28.064Z,16.93
2022-09-14T07:08:00.014Z,17.01
2022-09-14T07:10:31.934Z,17.11
2022-09-14T07:13:03.911Z,17.14
2022-09-14T07:15:35.807Z,17.19
2022-09-14T07:18:07.764Z,17.25
2022-09-14T07:20:39.723Z,17.29
2022-09-14T07:23:13.584Z,17.30
2022-09-14T07:25:45.562Z,17.40
2022-09-14T07:28:17.450Z,17.57
2022-09-14T07:30:49.406Z,17.67
2022-09-14T07:33:21.375Z,17.83
2022-09-14T07:35:53.377Z,17.82
2022-09-14T07:38:48.208Z,17.96
2022-09-14T07:41:18.260Z,18.14
2022-09-14T07:43:56.873Z,18.32
2022-09-14T07:46:33.259Z,18.56
2022-09-14T07:49:07.064Z,18.56
2022-09-14T07:51:40.028Z,18.51
2022-09-14T07:54:14.786Z,18.58
2022-09-14T07:56:47.166Z,18.72
2022-09-14T07:59:36.809Z,18.90
2022-09-14T08:02:11.310Z,18.90
2022-09-14T08:04:43.528Z,18.90
2022-09-14T08:07:18.188Z,18.92
2022-09-14T08:09:50.263Z,18.93
2022-09-14T08:12:22.553Z,19.02
2022-09-14T08:14:54.991Z,19.23
2022-09-14T08:17:26.945Z,19.39
2022-09-14T08:19:58.872Z,19.48
2022-09-14T08:22:30.812Z,19.49
2022-09-14T08:25:02.736Z,19.51
2022-09-14T08:27:34.722Z,19.60
2022-09-14T08:30:07.680Z,19.86
2022-09-14T08:32:39.609Z,20.02
2022-09-14T08:35:11.571Z,20.19
2022-09-14T08:37:43.470Z,20.38
2022-09-14T08:40:17.537Z,20.68
2022-09-14T08:42:50.872Z,20.62
2022-09-14T08:45:24.271Z,20.43
2022-09-14T08:47:58.833Z,20.25
2022-09-14T08:50:33.852Z,20.00
2022-09-14T08:53:09.076Z,19.81
2022-09-14T08:56:08.942Z,19.74
2022-09-14T08:59:17.300Z,19.85
2022-09-14T09:02:55.710Z,20.05
2022-09-14T09:05:33.519Z,20.27
2022-09-14T09:08:39.053Z,20.27
2022-09-14T09:11:18.768Z,20.62
2022-09-14T09:13:53.232Z,20.85
2022-09-14T09:16:27.308Z,20.96
2022-09-14T09:19:05.983Z,20.98
2022-09-14T09:21:46.284Z,20.98
2022-09-14T09:24:37.990Z,20.93
2022-09-14T09:27:15.479Z,21.50
2022-09-14T09:29:47.519Z,22.51
2022-09-14T09:32:24.915Z,22.96
2022-09-14T09:34:56.942Z,23.96
2022-09-14T09:37:34.919Z,24.71
2022-09-14T09:40:20.405Z,25.95
2022-09-14T09:43:06.013Z,27.75
2022-09-14T09:45:59.696Z,28.44
2022-09-14T09:48:44.363Z,29.31
2022-09-14T09:51:24.247Z,30.66
2022-09-14T09:54:15.382Z,30.21
2022-09-14T09:56:57.341Z,29.39
2022-09-14T09:59:42.372Z,28.44
2022-09-14T10:02:30.897Z,27.72
2022-09-14T10:05:21.588Z,27.20
2022-09-14T10:08:00.216Z,26.66
2022-09-14T10:10:34.890Z,25.74
2022-09-14T10:13:26.189Z,24.98
2022-09-14T10:16:18.915Z,24.41
2022-09-14T10:18:53.271Z,23.93
2022-09-14T10:21:26.479Z,23.53
2022-09-14T10:24:15.338Z,23.35
2022-09-14T10:26:47.314Z,23.31
2022-09-14T10:29:39.985Z,23.40
2022-09-14T10:32:23.640Z,23.23
2022-09-14T10:34:55.738Z,23.06
2022-09-14T10:37:47.470Z,22.94
2022-09-14T10:40:27.695Z,22.62
2022-09-14T10:43:04.012Z,22.56
2022-09-14T10:45:41.910Z,22.50
2022-09-14T10:48:43.642Z,22.56
2022-09-14T10:51:38.085Z,23.21
2022-09-14T10:54:41.573Z,24.28
2022-09-14T10:57:53.528Z,24.77
2022-09-14T11:00:26.895Z,25.67
2022-09-14T11:03:24.801Z,25.98
2022-09-14T11:06:34.576Z,26.32
2022-09-14T11:09:30.942Z,26.68
2022-09-14T11:12:30.889Z,26.73
2022-09-14T11:15:02.629Z,27.04
2022-09-14T11:17:48.890Z,27.47
2022-09-14T11:21:20.798Z,28.17
2022-09-14T11:24:12.061Z,28.88
2022-09-14T11:27:20.885Z,28.25
2022-09-14T11:30:03.862Z,27.88
2022-09-14T11:32:48.317Z,26.75
2022-09-14T11:35:45.611Z,25.79
2022-09-14T11:38:20.754Z,25.22
2022-09-14T11:41:43.439Z,24.70
2022-09-14T11:44:25.350Z,24.67
2022-09-14T11:47:07.220Z,24.67
2022-09-14T11:50:18.439Z,24.36
2022-09-14T11:53:11.081Z,23.84
2022-09-14T11:55:49.928Z,23.62
2022-09-14T11:58:29.758Z,23.67
2022-09-14T12:01:36.993Z,23.38
2022-09-14T12:04:14.491Z,22.98
2022-09-14T12:06:54.245Z,22.67
2022-09-14T12:09:26.091Z,22.46
2022-09-14T12:11:58.770Z,22.62
2022-09-14T12:14:40.663Z,22.64
2022-09-14T12:17:39.534Z,22.70
2022-09-14T12:20:44.672Z,22.53
2022-09-14T12:23:37.862Z,22.39
2022-09-14T12:26:18.986Z,22.18
2022-09-14T12:28:56.223Z,22.02
2022-09-14T12:31:48.004Z,21.96
2022-09-14T12:34:23.504Z,22.07
2022-09-14T12:36:57.945Z,22.20
2022-09-14T12:39:35.667Z,22.38
2022-09-14T12:42:30.090Z,22.55
2022-09-14T12:45:51.370Z,22.99
2022-09-14T12:48:48.280Z,23.30
2022-09-14T12:51:31.887Z,23.61
2022-09-14T12:54:09.979Z,24.15
2022-09-14T12:57:03.316Z,24.40
2022-09-14T13:00:09.950Z,24.17
2022-09-14T13:03:07.667Z,23.92
2022-09-14T13:05:44.508Z,23.60
2022-09-14T13:08:23.728Z,23.24
2022-09-14T13:10:55.787Z,23.09
2022-09-14T13:13:33.593Z,22.99
2022-09-14T13:16:07.396Z,23.45
2022-09-14T13:18:39.409Z,23.58
2022-09-14T13:21:24.078Z,23.49
2022-09-14T13:23:56.164Z,23.07
2022-09-14T13:26:31.708Z,22.86
2022-09-14T13:29:08.335Z,22.60
2022-09-14T13:31:40.647Z,22.34
2022-09-14T13:34:39.341Z,22.18
2022-09-14T13:37:14.921Z,22.22
2022-09-14T13:39:52.684Z,22.46
2022-09-14T13:42:25.623Z,22.63
2022-09-14T13:44:57.693Z,22.54
2022-09-14T13:47:29.812Z,22.38
2022-09-14T13:50:01.969Z,22.12
2022-09-14T13:53:00.566Z,21.92
2022-09-14T13:55:33.183Z,21.76
2022-09-14T13:58:09.291Z,21.75
2022-09-14T14:00:53.332Z,21.67
2022-09-14T14:03:33.715Z,21.70
2022-09-14T14:06:28.494Z,21.73
2022-09-14T14:09:11.450Z,21.81
2022-09-14T14:11:46.982Z,21.80
2022-09-14T14:14:31.145Z,21.80
2022-09-14T14:17:23.995Z,21.70
2022-09-14T14:19:58.912Z,21.71
2022-09-14T14:22:35.654Z,21.89
2022-09-14T14:25:28.876Z,22.12
2022-09-14T14:28:04.246Z,22.33
2022-09-14T14:30:40.365Z,22.34
2022-09-14T14:33:20.625Z,22.20
2022-09-14T14:35:54.527Z,22.17
2022-09-14T14:38:26.570Z,22.21
2022-09-14T14:40:58.684Z,22.05
2022-09-14T14:43:31.206Z,21.93
2022-09-14T14:46:06.098Z,21.86
2022-09-14T14:48:38.400Z,21.84
2022-09-14T14:51:15.329Z,21.80
2022-09-14T14:53:47.475Z,21.73
2022-09-14T14:56:19.795Z,21.74
2022-09-14T14:58:51.807Z,21.80
2022-09-14T15:01:23.959Z,21.65
2022-09-14T15:03:56.193Z,21.72
2022-09-14T15:06:28.644Z,21.73
2022-09-14T15:09:00.751Z,21.68
2022-09-14T15:11:32.795Z,21.81
2022-09-14T15:14:05.262Z,21.92
2022-09-14T15:16:37.348Z,21.91
2022-09-14T15:19:10.710Z,21.94
2022-09-14T15:21:44.087Z,21.82
2022-09-14T15:24:16.017Z,21.74
2022-09-14T15:26:48.216Z,21.61
2022-09-14T15:29:20.182Z,21.52
2022-09-14T15:31:52.376Z,21.46
2022-09-14T15:34:24.467Z,21.43
2022-09-14T15:36:57.619Z,21.35
2022-09-14T15:39:31.664Z,21.31
2022-09-14T15:42:03.916Z,21.35
2022-09-14T15:44:35.954Z,21.41
2022-09-14T15:47:08.221Z,21.44
2022-09-14T15:49:40.666Z,21.55
2022-09-14T15:52:12.919Z,21.63
2022-09-14T15:54:44.927Z,21.63
2022-09-14T15:57:16.940Z,21.56
2022-09-14T15:59:48.854Z,21.44
2022-09-14T16:02:20.852Z,21.20
2022-09-14T16:04:53.062Z,21.05
2022-09-14T16:07:25.405Z,20.93
2022-09-14T16:09:59.066Z,20.87
2022-09-14T16:12:31.209Z,20.80
2022-09-14T16:15:03.209Z,20.71
2022-09-14T16:17:35.208Z,20.61
2022-09-14T16:20:10.334Z,20.60
2022-09-14T16:22:42.352Z,20.51
2022-09-14T16:25:15.782Z,20.40
2022-09-14T16:27:49.061Z,20.32
2022-09-14T16:30:21.058Z,20.27
2022-09-14T16:32:53.183Z,20.17
2022-09-14T16:35:25.636Z,20.13
2022-09-14T16:37:57.656Z,20.08
2022-09-14T16:40:29.667Z,19.99
2022-09-14T16:43:01.757Z,19.89
2022-09-14T16:45:33.799Z,19.86
2022-09-14T16:48:05.966Z,19.85
2022-09-14T16:50:37.887Z,19.83
2022-09-14T16:53:09.881Z,19.83
2022-09-14T16:55:41.836Z,19.75
2022-09-14T16:58:13.908Z,19.72
2022-09-14T17:00:46.039Z,19.68
2022-09-14T17:03:18.013Z,19.69
2022-09-14T17:05:50.271Z,19.67
2022-09-14T17:08:22.242Z,19.64
2022-09-14T17:10:54.178Z,19.61
2022-09-14T17:13:27.176Z,19.61
2022-09-14T17:16:07.207Z,19.57
2022-09-14T17:18:42.858Z,19.56
2022-09-14T17:21:24.978Z,19.54
2022-09-14T17:23:57.138Z,19.49
2022-09-14T17:26:29.056Z,19.47
2022-09-14T17:29:02.724Z,19.46
2022-09-14T17:31:39.378Z,19.42
2022-09-14T17:34:13.829Z,19.38
2022-09-14T17:36:46.271Z,19.31
2022-09-14T17:39:18.315Z,19.30
2022-09-14T17:41:50.278Z,19.24
2022-09-14T17:44:25.827Z,19.20
2022-09-14T17:46:58.159Z,19.13
2022-09-14T17:49:30.200Z,19.06
2022-09-14T17:52:03.183Z,18.98
2022-09-14T17:54:35.157Z,18.94
2022-09-14T17:57:07.042Z,18.89
2022-09-14T17:59:39.025Z,18.85
2022-09-14T18:02:11.255Z,18.80
2022-09-14T18:04:48.450Z,18.79
2022-09-14T18:07:20.592Z,18.72
2022-09-14T18:09:52.584Z,18.68
2022-09-14T18:12:25.008Z,18.66
2022-09-14T18:14:57.058Z,18.60
2022-09-14T18:17:28.975Z,18.59
2022-09-14T18:20:01.001Z,18.58
2022-09-14T18:22:32.945Z,18.56
2022-09-14T18:25:07.663Z,18.53
2022-09-14T18:27:40.292Z,18.51
2022-09-14T18:30:12.880Z,18.52
2022-09-14T18:32:46.318Z,18.49
2022-09-14T18:35:18.227Z,18.51
2022-09-14T18:37:50.144Z,18.50
2022-09-14T18:40:22.174Z,18.51
2022-09-14T18:42:54.219Z,18.49
2022-09-14T18:45:26.177Z,18.49
2022-09-14T18:47:58.171Z,18.47
2022-09-14T18:50:30.319Z,18.45
2022-09-14T18:53:02.228Z,18.43
2022-09-14T18:55:34.270Z,18.44
2022-09-14T18:58:06.150Z,18.41
2022-09-14T19:00:45.733Z,18.40
2022-09-14T19:03:17.660Z,18.36
2022-09-14T19:05:49.816Z,18.34
2022-09-14T19:08:22.641Z,18.33
2022-09-14T19:10:54.538Z,18.34
2022-09-14T19:13:29.945Z,18.36
2022-09-14T19:16:11.976Z,18.37
2022-09-14T19:18:46.536Z,18.36
2022-09-14T19:21:28.315Z,18.34
2022-09-14T19:24:07.681Z,18.32
2022-09-14T19:26:51.575Z,18.27
2022-09-14T19:29:25.120Z,18.25
2022-09-14T19:32:00.773Z,18.22
2022-09-14T19:34:33.015Z,18.18
2022-09-14T19:37:05.488Z,18.11
2022-09-14T19:39:37.631Z,18.06
2022-09-14T19:42:10.098Z,18.03
2022-09-14T19:44:42.059Z,17.99
2022-09-14T19:47:14.050Z,17.92
2022-09-14T19:49:46.044Z,17.87
2022-09-14T19:52:18.046Z,17.82
2022-09-14T19:54:49.998Z,17.81
2022-09-14T19:57:22.097Z,17.78
2022-09-14T19:59:54.342Z,17.76
2022-09-14T20:02:26.559Z,17.73
2022-09-14T20:04:58.609Z,17.68
2022-09-14T20:07:30.636Z,17.63
2022-09-14T20:10:02.624Z,17.59
2022-09-14T20:12:34.906Z,17.63
2022-09-14T20:15:07.622Z,17.58
2022-09-14T20:17:39.640Z,17.57
2022-09-14T20:20:11.841Z,17.56
2022-09-14T20:22:44.131Z,17.52
2022-09-14T20:25:16.157Z,17.48
2022-09-14T20:27:48.146Z,17.42
2022-09-14T20:30:20.637Z,17.41
2022-09-14T20:32:52.867Z,17.42
2022-09-14T20:35:24.790Z,17.39
2022-09-14T20:37:56.725Z,17.36
2022-09-14T20:40:28.844Z,17.36
2022-09-14T20:43:01.105Z,17.31
2022-09-14T20:45:32.983Z,17.27
2022-09-14T20:48:04.954Z,17.23
2022-09-14T20:50:36.875Z,17.22
2022-09-14T20:53:08.939Z,17.18
2022-09-14T20:55:41.120Z,17.14
2022-09-14T20:58:13.022Z,17.11
2022-09-14T21:00:46.196Z,17.06
2022-09-14T21:03:18.248Z,17.04
2022-09-14T21:05:53.772Z,16.98
2022-09-14T21:08:26.045Z,16.97
2022-09-14T21:10:58.040Z,16.90
2022-09-14T21:13:30.477Z,16.88
2022-09-14T21:16:19.588Z,16.82
2022-09-14T21:18:58.614Z,16.71
2022-09-14T21:21:30.946Z,16.71
2022-09-14T21:24:06.002Z,16.64
2022-09-14T21:26:42.550Z,16.55
2022-09-14T21:29:23.628Z,16.52
2022-09-14T21:31:55.849Z,16.53
2022-09-14T21:34:27.864Z,16.43
2022-09-14T21:36:59.832Z,16.45
2022-09-14T21:39:32.036Z,16.47
2022-09-14T21:42:04.192Z,16.51
2022-09-14T21:44:37.924Z,16.53
2022-09-14T21:47:09.810Z,16.45
2022-09-14T21:49:41.832Z,16.44
2022-09-14T21:52:13.879Z,16.37
2022-09-14T21:54:45.816Z,16.35
2022-09-14T21:57:17.738Z,16.33
2022-09-14T21:59:49.648Z,16.32
2022-09-14T22:02:21.990Z,16.35
2022-09-14T22:04:53.998Z,16.41
2022-09-14T22:07:25.938Z,16.41
2022-09-14T22:09:57.838Z,16.39
2022-09-14T22:12:31.061Z,16.39
2022-09-14T22:15:02.996Z,16.38
2022-09-14T22:17:35.277Z,16.35
2022-09-14T22:20:08.000Z,16.32
2022-09-14T22:22:40.354Z,16.35
2022-09-14T22:25:12.605Z,16.36
2022-09-14T22:27:44.556Z,16.31
2022-09-14T22:30:16.568Z,16.27
2022-09-14T22:32:48.457Z,16.24
2022-09-14T22:35:20.446Z,16.25
2022-09-14T22:37:52.376Z,16.20
2022-09-14T22:40:24.443Z,16.12
2022-09-14T22:42:56.423Z,16.09
2022-09-14T22:45:28.328Z,16.05
2022-09-14T22:48:00.239Z,15.90
2022-09-14T22:50:32.183Z,15.91
2022-09-14T22:53:04.103Z,15.87
2022-09-14T22:55:40.902Z,15.79
2022-09-14T22:58:22.070Z,15.75
2022-09-14T23:00:54.317Z,15.75
2022-09-14T23:03:26.771Z,15.76
2022-09-14T23:06:01.789Z,15.75
2022-09-14T23:08:35.936Z,15.70
2022-09-14T23:11:11.353Z,15.61
2022-09-14T23:13:43.411Z,15.57
2022-09-14T23:16:19.004Z,15.53
2022-09-14T23:19:03.304Z,15.47
2022-09-14T23:21:36.125Z,15.33
2022-09-14T23:24:08.266Z,15.35
2022-09-14T23:26:40.649Z,15.38
2022-09-14T23:29:16.894Z,15.31
2022-09-14T23:31:49.062Z,15.30
2022-09-14T23:34:21.108Z,15.25
2022-09-14T23:36:53.013Z,15.23
2022-09-14T23:39:25.742Z,15.21
2022-09-14T23:41:57.907Z,15.29
2022-09-14T23:44:29.888Z,15.27
2022-09-14T23:47:02.307Z,15.23
2022-09-14T23:49:34.189Z,15.20
2022-09-14T23:52:06.097Z,15.12
2022-09-14T23:54:38.003Z,15.11
2022-09-14T23:57:09.904Z,15.10
2022-09-14T23:59:41.918Z,15.02
